This is the latest recevied weather packets stored in our database for station/object N0QV. If no packets are shown the sender has not sent any weather packets the latest 1 day(s).
| Time | Temp. | Humidity | Pressure | Rain* | Wind** | Luminosity | Snow |
|---|---|---|---|---|---|---|---|
| 1836274731 | 17.22° C | 90% | 1015.7 hPa | 0 mm | 0.45 m/s, 108° | 0 W/m² | - |
| 1836274583 | 17.22° C | 89% | 1015.4 hPa | 0 mm | 0 m/s | 0 W/m² | - |
| 1836274429 | 17.22° C | 90% | 1015.7 hPa | 0 mm | 0.45 m/s, 136° | 0 W/m² | - |
| 1836274283 | 17.22° C | 89% | 1015.7 hPa | 0 mm | 0.45 m/s, 103° | 0 W/m² | - |
| 1836274128 | 17.22° C | 90% | 1015.8 hPa | 0 mm | 0.89 m/s, 116° | 0 W/m² | - |
| 1778054210 | 1.67° C | 64% | 1015.1 hPa | 0 mm | 0 m/s | 0 W/m² | - |
| 1778053906 | 1.67° C | 64% | 1015.2 hPa | 0 mm | 0 m/s | 0 W/m² | - |
| 1778053604 | 1.67° C | 64% | 1015.4 hPa | 0 mm | 0.45 m/s, 267° | 0 W/m² | - |
| 1778053301 | 1.67° C | 64% | 1015.4 hPa | 0 mm | 0.45 m/s, 267° | 0 W/m² | - |
| 1778052999 | 1.67° C | 64% | 1015.5 hPa | 0 mm | 0.45 m/s, 267° | 0 W/m² | - |
| 1778052696 | 1.67° C | 64% | 1015.3 hPa | 0 mm | 0.45 m/s, 266° | 0 W/m² | - |
| 1778052392 | 1.67° C | 63% | 1015.3 hPa | 0 mm | 0 m/s | 0 W/m² | - |
| 1778052091 | 1.67° C | 63% | 1015 hPa | 0 mm | 0 m/s | 0 W/m² | - |
| 1778051788 | 1.67° C | 62% | 1015 hPa | 0 mm | 0.45 m/s, 265° | 0 W/m² | - |
| 1778051485 | 1.67° C | 62% | 1014.8 hPa | 0 mm | 0 m/s | 0 W/m² | - |
| 1778051182 | 2.22° C | 62% | 1014.7 hPa | 0 mm | 0 m/s | 0 W/m² | - |
| 1778050879 | 2.22° C | 60% | 1014.7 hPa | 0 mm | 0 m/s | 0 W/m² | - |
| 1778050578 | 2.78° C | 59% | 1015 hPa | 0 mm | 0 m/s | 0 W/m² | - |
| 1778050274 | 2.78° C | 58% | 1014.9 hPa | 0 mm | 0.45 m/s, 265° | 0 W/m² | - |
| 1778049970 | 2.78° C | 58% | 1014.8 hPa | 0 mm | 0.45 m/s, 265° | 0 W/m² | - |
| 1778049666 | 2.78° C | 58% | 1014.8 hPa | 0 mm | 0.45 m/s, 266° | 0 W/m² | - |
| 1778049364 | 2.78° C | 58% | 1014.8 hPa | 0 mm | 0.45 m/s, 266° | 0 W/m² | - |
| 1778049061 | 3.33° C | 57% | 1014.9 hPa | 0 mm | 0 m/s | 0 W/m² | - |
| 1778048759 | 3.33° C | 57% | 1014.9 hPa | 0 mm | 0.45 m/s, 273° | 0 W/m² | - |
| 1778048456 | 3.33° C | 57% | 1014.8 hPa | 0 mm | 0.45 m/s, 272° | 0 W/m² | - |
* Rain latest hour (hover to see other rain measurements)
** Current wind speed in m/s (hover to see current wind gust speed)